sensor_id;sensor_type;location;lat;lon;timestamp;P1;durP1;ratioP1;P2;durP2;ratioP2
66609;SDS011;53468;48.276;14.416;2023-04-01T00:00:33;1.58;;;0.70;;
66609;SDS011;53468;48.276;14.416;2023-04-01T00:35:04;4.57;;;0.80;;
66609;SDS011;53468;48.276;14.416;2023-04-01T00:40:45;3.97;;;1.02;;
66609;SDS011;53468;48.276;14.416;2023-04-01T00:51:51;4.20;;;1.10;;
66609;SDS011;53468;48.276;14.416;2023-04-01T00:57:34;5.28;;;1.00;;
66609;SDS011;53468;48.276;14.416;2023-04-01T01:02:56;2.58;;;1.27;;
66609;SDS011;53468;48.276;14.416;2023-04-01T01:08:53;5.90;;;1.58;;
66609;SDS011;53468;48.276;14.416;2023-04-01T01:14:54;7.47;;;1.85;;
66609;SDS011;53468;48.276;14.416;2023-04-01T01:31:46;5.43;;;1.48;;
66609;SDS011;53468;48.276;14.416;2023-04-01T01:37:06;8.30;;;2.10;;
66609;SDS011;53468;48.276;14.416;2023-04-01T01:47:53;8.30;;;2.40;;
66609;SDS011;53468;48.276;14.416;2023-04-01T01:53:12;5.90;;;2.20;;
66609;SDS011;53468;48.276;14.416;2023-04-01T01:58:22;6.43;;;2.60;;
66609;SDS011;53468;48.276;14.416;2023-04-01T02:03:36;5.65;;;2.45;;
66609;SDS011;53468;48.276;14.416;2023-04-01T02:09:00;5.55;;;2.75;;
66609;SDS011;53468;48.276;14.416;2023-04-01T02:19:45;9.33;;;3.70;;
66609;SDS011;53468;48.276;14.416;2023-04-01T02:25:19;8.50;;;2.50;;
66609;SDS011;53468;48.276;14.416;2023-04-01T02:30:34;6.30;;;2.80;;
66609;SDS011;53468;48.276;14.416;2023-04-01T02:35:45;5.97;;;2.50;;
66609;SDS011;53468;48.276;14.416;2023-04-01T02:41:14;6.75;;;1.70;;
66609;SDS011;53468;48.276;14.416;2023-04-01T02:46:43;4.50;;;1.27;;
66609;SDS011;53468;48.276;14.416;2023-04-01T02:52:19;5.70;;;1.80;;
66609;SDS011;53468;48.276;14.416;2023-04-01T02:58:06;4.57;;;1.80;;
66609;SDS011;53468;48.276;14.416;2023-04-01T03:03:12;4.38;;;1.55;;
66609;SDS011;53468;48.276;14.416;2023-04-01T03:08:24;3.05;;;1.40;;
66609;SDS011;53468;48.276;14.416;2023-04-01T03:13:45;3.92;;;1.70;;
66609;SDS011;53468;48.276;14.416;2023-04-01T03:24:02;11.20;;;2.20;;
66609;SDS011;53468;48.276;14.416;2023-04-01T03:29:57;4.13;;;1.80;;
66609;SDS011;53468;48.276;14.416;2023-04-01T03:35:12;4.45;;;1.77;;
66609;SDS011;53468;48.276;14.416;2023-04-01T03:40:30;3.92;;;2.00;;
66609;SDS011;53468;48.276;14.416;2023-04-01T03:46:00;4.95;;;1.88;;
66609;SDS011;53468;48.276;14.416;2023-04-01T03:51:10;8.20;;;1.65;;
66609;SDS011;53468;48.276;14.416;2023-04-01T04:01:51;7.25;;;2.45;;
66609;SDS011;53468;48.276;14.416;2023-04-01T04:07:10;3.63;;;1.98;;
66609;SDS011;53468;48.276;14.416;2023-04-01T04:12:28;6.50;;;2.42;;
66609;SDS011;53468;48.276;14.416;2023-04-01T04:17:40;5.82;;;1.65;;
66609;SDS011;53468;48.276;14.416;2023-04-01T04:28:37;7.15;;;2.78;;
66609;SDS011;53468;48.276;14.416;2023-04-01T04:34:04;5.82;;;2.20;;
66609;SDS011;53468;48.276;14.416;2023-04-01T04:39:19;4.50;;;1.80;;
66609;SDS011;53468;48.276;14.416;2023-04-01T04:44:38;4.55;;;1.83;;
66609;SDS011;53468;48.276;14.416;2023-04-01T04:55:50;6.55;;;2.10;;
66609;SDS011;53468;48.276;14.416;2023-04-01T05:01:04;4.78;;;1.63;;
66609;SDS011;53468;48.276;14.416;2023-04-01T05:06:13;6.75;;;1.98;;
66609;SDS011;53468;48.276;14.416;2023-04-01T05:11:36;4.20;;;1.90;;
66609;SDS011;53468;48.276;14.416;2023-04-01T05:17:46;7.38;;;1.77;;
66609;SDS011;53468;48.276;14.416;2023-04-01T05:34:27;1.65;;;0.77;;
66609;SDS011;53468;48.276;14.416;2023-04-01T05:40:32;0.82;;;0.40;;
66609;SDS011;53468;48.276;14.416;2023-04-01T05:46:42;1.40;;;0.60;;
66609;SDS011;53468;48.276;14.416;2023-04-01T06:44:59;4.05;;;1.15;;
66609;SDS011;53468;48.276;14.416;2023-04-01T06:50:40;4.57;;;1.50;;
66609;SDS011;53468;48.276;14.416;2023-04-01T07:02:21;6.22;;;2.47;;
66609;SDS011;53468;48.276;14.416;2023-04-01T07:07:50;6.55;;;2.03;;
66609;SDS011;53468;48.276;14.416;2023-04-01T07:14:13;2.55;;;1.08;;
66609;SDS011;53468;48.276;14.416;2023-04-01T07:38:15;1.85;;;0.80;;
66609;SDS011;53468;48.276;14.416;2023-04-01T07:44:24;2.17;;;0.85;;
66609;SDS011;53468;48.276;14.416;2023-04-01T07:50:18;1.65;;;0.73;;
66609;SDS011;53468;48.276;14.416;2023-04-01T07:56:18;2.20;;;0.73;;
66609;SDS011;53468;48.276;14.416;2023-04-01T08:02:30;3.03;;;0.60;;
66609;SDS011;53468;48.276;14.416;2023-04-01T08:08:16;5.53;;;1.05;;
66609;SDS011;53468;48.276;14.416;2023-04-01T08:38:05;0.57;;;0.37;;
66609;SDS011;53468;48.276;14.416;2023-04-01T08:43:38;1.85;;;0.50;;
66609;SDS011;53468;48.276;14.416;2023-04-01T09:00:50;9.68;;;0.70;;
66609;SDS011;53468;48.276;14.416;2023-04-01T09:06:28;1.42;;;0.38;;
66609;SDS011;53468;48.276;14.416;2023-04-01T09:12:15;2.20;;;0.30;;
66609;SDS011;53468;48.276;14.416;2023-04-01T09:23:43;0.80;;;0.40;;
66609;SDS011;53468;48.276;14.416;2023-04-01T09:29:18;1.80;;;0.60;;
66609;SDS011;53468;48.276;14.416;2023-04-01T09:34:52;0.77;;;0.20;;
66609;SDS011;53468;48.276;14.416;2023-04-01T09:40:21;1.85;;;0.35;;
66609;SDS011;53468;48.276;14.416;2023-04-01T09:45:37;1.30;;;0.43;;
66609;SDS011;53468;48.276;14.416;2023-04-01T09:51:00;0.77;;;0.40;;
66609;SDS011;53468;48.276;14.416;2023-04-01T10:08:37;1.30;;;0.52;;
66609;SDS011;53468;48.276;14.416;2023-04-01T10:14:32;1.75;;;0.50;;
66609;SDS011;53468;48.276;14.416;2023-04-01T10:20:30;1.92;;;0.75;;
66609;SDS011;53468;48.276;14.416;2023-04-01T10:37:19;1.77;;;0.60;;
66609;SDS011;53468;48.276;14.416;2023-04-01T10:43:40;1.42;;;0.40;;
66609;SDS011;53468;48.276;14.416;2023-04-01T10:49:56;1.75;;;0.43;;
66609;SDS011;53468;48.276;14.416;2023-04-01T11:13:32;0.65;;;0.40;;
66609;SDS011;53468;48.276;14.416;2023-04-01T11:25:07;1.65;;;0.80;;
66609;SDS011;53468;48.276;14.416;2023-04-01T11:30:53;0.88;;;0.45;;
66609;SDS011;53468;48.276;14.416;2023-04-01T11:36:23;2.25;;;0.82;;
66609;SDS011;53468;48.276;14.416;2023-04-01T11:53:39;1.00;;;0.40;;
66609;SDS011;53468;48.276;14.416;2023-04-01T11:59:06;0.63;;;0.30;;
66609;SDS011;53468;48.276;14.416;2023-04-01T12:04:53;1.45;;;0.50;;
66609;SDS011;53468;48.276;14.416;2023-04-01T12:10:15;1.27;;;0.40;;
66609;SDS011;53468;48.276;14.416;2023-04-01T12:21:52;2.50;;;0.32;;
66609;SDS011;53468;48.276;14.416;2023-04-01T12:27:14;3.05;;;0.40;;
66609;SDS011;53468;48.276;14.416;2023-04-01T12:32:38;0.80;;;0.30;;
66609;SDS011;53468;48.276;14.416;2023-04-01T12:37:55;0.63;;;0.30;;
66609;SDS011;53468;48.276;14.416;2023-04-01T12:54:59;0.73;;;0.73;;
66609;SDS011;53468;48.276;14.416;2023-04-01T13:00:56;0.43;;;0.17;;
66609;SDS011;53468;48.276;14.416;2023-04-01T13:06:40;0.85;;;0.30;;
66609;SDS011;53468;48.276;14.416;2023-04-01T13:12:09;0.20;;;0.20;;
66609;SDS011;53468;48.276;14.416;2023-04-01T13:17:46;0.63;;;0.20;;
66609;SDS011;53468;48.276;14.416;2023-04-01T13:28:47;0.10;;;0.03;;
66609;SDS011;53468;48.276;14.416;2023-04-01T13:33:58;1.55;;;0.30;;
66609;SDS011;53468;48.276;14.416;2023-04-01T13:39:18;0.75;;;0.20;;
66609;SDS011;53468;48.276;14.416;2023-04-01T13:44:42;0.52;;;0.20;;
66609;SDS011;53468;48.276;14.416;2023-04-01T13:50:03;0.80;;;0.30;;
66609;SDS011;53468;48.276;14.416;2023-04-01T13:55:49;2.50;;;0.30;;
66609;SDS011;53468;48.276;14.416;2023-04-01T14:01:05;1.48;;;0.30;;
66609;SDS011;53468;48.276;14.416;2023-04-01T14:06:29;0.63;;;0.35;;
66609;SDS011;53468;48.276;14.416;2023-04-01T14:22:57;1.95;;;1.02;;
66609;SDS011;53468;48.276;14.416;2023-04-01T14:33:46;7.38;;;0.55;;
66609;SDS011;53468;48.276;14.416;2023-04-01T14:39:01;0.20;;;0.10;;
66609;SDS011;53468;48.276;14.416;2023-04-01T14:44:43;0.55;;;0.22;;
66609;SDS011;53468;48.276;14.416;2023-04-01T14:50:40;0.20;;;0.20;;
66609;SDS011;53468;48.276;14.416;2023-04-01T14:55:52;1.80;;;0.57;;
66609;SDS011;53468;48.276;14.416;2023-04-01T15:01:24;5.50;;;0.80;;
66609;SDS011;53468;48.276;14.416;2023-04-01T15:06:51;1.83;;;0.55;;
66609;SDS011;53468;48.276;14.416;2023-04-01T15:13:02;0.13;;;0.13;;
66609;SDS011;53468;48.276;14.416;2023-04-01T15:19:00;0.40;;;0.28;;
66609;SDS011;53468;48.276;14.416;2023-04-01T15:24:38;2.35;;;0.45;;
66609;SDS011;53468;48.276;14.416;2023-04-01T15:48:06;13.98;;;7.78;;
66609;SDS011;53468;48.276;14.416;2023-04-01T16:11:55;7.90;;;5.95;;
66609;SDS011;53468;48.276;14.416;2023-04-01T16:17:19;4.18;;;2.67;;
66609;SDS011;53468;48.276;14.416;2023-04-01T16:22:45;3.30;;;1.50;;
66609;SDS011;53468;48.276;14.416;2023-04-01T16:34:10;3.83;;;2.00;;
66609;SDS011;53468;48.276;14.416;2023-04-01T16:39:49;4.50;;;2.08;;
66609;SDS011;53468;48.276;14.416;2023-04-01T16:45:39;1.95;;;0.95;;
66609;SDS011;53468;48.276;14.416;2023-04-01T16:51:09;2.63;;;0.70;;
66609;SDS011;53468;48.276;14.416;2023-04-01T16:56:43;1.35;;;0.60;;
66609;SDS011;53468;48.276;14.416;2023-04-01T17:02:04;2.55;;;0.55;;
66609;SDS011;53468;48.276;14.416;2023-04-01T17:07:25;1.42;;;0.38;;
66609;SDS011;53468;48.276;14.416;2023-04-01T17:12:46;4.18;;;0.82;;
66609;SDS011;53468;48.276;14.416;2023-04-01T17:18:01;7.18;;;1.40;;
66609;SDS011;53468;48.276;14.416;2023-04-01T17:29:46;1.17;;;0.50;;
66609;SDS011;53468;48.276;14.416;2023-04-01T17:35:49;0.63;;;0.50;;
66609;SDS011;53468;48.276;14.416;2023-04-01T17:41:19;0.22;;;0.20;;
66609;SDS011;53468;48.276;14.416;2023-04-01T17:47:00;0.70;;;0.40;;
66609;SDS011;53468;48.276;14.416;2023-04-01T17:52:37;0.30;;;0.30;;
66609;SDS011;53468;48.276;14.416;2023-04-01T17:58:20;0.28;;;0.10;;
66609;SDS011;53468;48.276;14.416;2023-04-01T18:03:44;0.30;;;0.10;;
66609;SDS011;53468;48.276;14.416;2023-04-01T18:09:29;0.20;;;0.20;;
66609;SDS011;53468;48.276;14.416;2023-04-01T18:15:39;1.02;;;0.30;;
66609;SDS011;53468;48.276;14.416;2023-04-01T18:21:20;0.45;;;0.30;;
66609;SDS011;53468;48.276;14.416;2023-04-01T18:27:40;1.00;;;0.20;;
66609;SDS011;53468;48.276;14.416;2023-04-01T21:14:27;1.65;;;0.80;;
66609;SDS011;53468;48.276;14.416;2023-04-01T23:08:28;0.43;;;0.25;;
66609;SDS011;53468;48.276;14.416;2023-04-01T23:14:48;0.55;;;0.30;;
66609;SDS011;53468;48.276;14.416;2023-04-01T23:32:36;1.25;;;0.40;;
66609;SDS011;53468;48.276;14.416;2023-04-01T23:38:58;1.77;;;0.70;;
